sensor_id;sensor_type;location;lat;lon;timestamp;P1;durP1;ratioP1;P2;durP2;ratioP2
27857;SDS011;16852;51.446;6.528;2023-10-13T10:52:19;8.75;;;5.65;;
27857;SDS011;16852;51.446;6.528;2023-10-13T10:54:20;14.27;;;5.43;;
27857;SDS011;16852;51.446;6.528;2023-10-13T10:56:25;12.40;;;5.45;;
27857;SDS011;16852;51.446;6.528;2023-10-13T10:58:36;8.48;;;5.20;;
27857;SDS011;16852;51.446;6.528;2023-10-13T11:00:44;12.98;;;5.63;;
27857;SDS011;16852;51.446;6.528;2023-10-13T11:02:56;10.60;;;5.28;;
27857;SDS011;16852;51.446;6.528;2023-10-13T11:04:57;8.20;;;4.90;;
27857;SDS011;16852;51.446;6.528;2023-10-13T11:06:59;11.38;;;5.90;;
27857;SDS011;16852;51.446;6.528;2023-10-13T11:09:03;12.23;;;5.22;;
27857;SDS011;16852;51.446;6.528;2023-10-13T11:11:07;8.65;;;5.03;;
27857;SDS011;16852;51.446;6.528;2023-10-13T11:13:17;10.65;;;5.03;;
27857;SDS011;16852;51.446;6.528;2023-10-13T11:15:24;14.88;;;5.68;;
27857;SDS011;16852;51.446;6.528;2023-10-13T11:17:33;16.90;;;5.53;;
27857;SDS011;16852;51.446;6.528;2023-10-13T11:19:42;12.07;;;5.18;;
27857;SDS011;16852;51.446;6.528;2023-10-13T11:21:43;9.43;;;4.60;;
27857;SDS011;16852;51.446;6.528;2023-10-13T11:23:43;12.73;;;5.70;;
27857;SDS011;16852;51.446;6.528;2023-10-13T11:25:57;8.55;;;4.70;;
27857;SDS011;16852;51.446;6.528;2023-10-13T11:28:16;14.13;;;5.57;;
27857;SDS011;16852;51.446;6.528;2023-10-13T11:30:18;9.05;;;5.30;;
27857;SDS011;16852;51.446;6.528;2023-10-13T11:32:25;11.18;;;5.20;;
27857;SDS011;16852;51.446;6.528;2023-10-13T11:34:29;11.60;;;5.47;;
27857;SDS011;16852;51.446;6.528;2023-10-13T11:36:39;10.07;;;5.05;;
27857;SDS011;16852;51.446;6.528;2023-10-13T11:38:40;11.35;;;5.55;;
27857;SDS011;16852;51.446;6.528;2023-10-13T11:40:41;10.10;;;4.95;;
27857;SDS011;16852;51.446;6.528;2023-10-13T11:42:59;15.77;;;5.15;;
27857;SDS011;16852;51.446;6.528;2023-10-13T11:45:00;13.07;;;5.10;;
27857;SDS011;16852;51.446;6.528;2023-10-13T11:47:30;22.02;;;5.97;;
27857;SDS011;16852;51.446;6.528;2023-10-13T11:49:47;12.73;;;4.93;;
27857;SDS011;16852;51.446;6.528;2023-10-13T11:51:49;12.45;;;5.63;;
27857;SDS011;16852;51.446;6.528;2023-10-13T11:53:51;15.48;;;5.43;;
27857;SDS011;16852;51.446;6.528;2023-10-13T11:55:52;16.92;;;5.60;;
27857;SDS011;16852;51.446;6.528;2023-10-13T11:57:52;14.25;;;4.60;;
27857;SDS011;16852;51.446;6.528;2023-10-13T11:59:53;10.13;;;4.72;;
27857;SDS011;16852;51.446;6.528;2023-10-13T12:01:55;10.70;;;4.50;;
27857;SDS011;16852;51.446;6.528;2023-10-13T12:04:11;16.27;;;4.88;;
27857;SDS011;16852;51.446;6.528;2023-10-13T12:06:30;14.18;;;4.53;;
27857;SDS011;16852;51.446;6.528;2023-10-13T12:08:35;16.38;;;5.07;;
27857;SDS011;16852;51.446;6.528;2023-10-13T12:10:38;9.85;;;4.55;;
27857;SDS011;16852;51.446;6.528;2023-10-13T12:12:49;18.27;;;4.97;;
27857;SDS011;16852;51.446;6.528;2023-10-13T12:14:54;20.80;;;5.32;;
27857;SDS011;16852;51.446;6.528;2023-10-13T12:16:55;13.65;;;5.00;;
27857;SDS011;16852;51.446;6.528;2023-10-13T12:19:03;18.75;;;5.72;;
27857;SDS011;16852;51.446;6.528;2023-10-13T12:21:08;12.73;;;5.28;;
27857;SDS011;16852;51.446;6.528;2023-10-13T12:23:12;10.95;;;4.30;;
27857;SDS011;16852;51.446;6.528;2023-10-13T12:25:17;13.95;;;4.95;;
27857;SDS011;16852;51.446;6.528;2023-10-13T12:27:32;16.95;;;5.15;;
27857;SDS011;16852;51.446;6.528;2023-10-13T12:31:46;15.32;;;5.43;;
27857;SDS011;16852;51.446;6.528;2023-10-13T12:34:00;22.25;;;5.55;;
27857;SDS011;16852;51.446;6.528;2023-10-13T12:36:06;17.27;;;5.50;;
27857;SDS011;16852;51.446;6.528;2023-10-13T12:38:10;19.40;;;5.35;;
27857;SDS011;16852;51.446;6.528;2023-10-13T12:40:36;17.13;;;5.13;;
27857;SDS011;16852;51.446;6.528;2023-10-13T12:42:56;19.02;;;5.85;;
27857;SDS011;16852;51.446;6.528;2023-10-13T12:45:15;18.00;;;4.70;;
27857;SDS011;16852;51.446;6.528;2023-10-13T12:47:35;18.30;;;5.03;;
27857;SDS011;16852;51.446;6.528;2023-10-13T12:49:54;17.92;;;6.13;;
27857;SDS011;16852;51.446;6.528;2023-10-13T12:51:58;13.80;;;5.35;;
27857;SDS011;16852;51.446;6.528;2023-10-13T12:54:00;19.08;;;5.55;;
27857;SDS011;16852;51.446;6.528;2023-10-13T12:56:14;14.23;;;4.75;;
27857;SDS011;16852;51.446;6.528;2023-10-13T12:58:15;21.93;;;5.53;;
27857;SDS011;16852;51.446;6.528;2023-10-13T13:00:16;16.95;;;5.30;;
27857;SDS011;16852;51.446;6.528;2023-10-13T13:02:21;16.88;;;4.90;;
27857;SDS011;16852;51.446;6.528;2023-10-13T13:04:24;10.45;;;4.93;;
27857;SDS011;16852;51.446;6.528;2023-10-13T13:06:31;15.15;;;5.45;;
27857;SDS011;16852;51.446;6.528;2023-10-13T13:08:33;25.80;;;5.93;;
27857;SDS011;16852;51.446;6.528;2023-10-13T13:10:42;12.10;;;4.53;;
27857;SDS011;16852;51.446;6.528;2023-10-13T13:12:46;21.27;;;5.43;;
27857;SDS011;16852;51.446;6.528;2023-10-13T13:14:46;16.77;;;5.18;;
27857;SDS011;16852;51.446;6.528;2023-10-13T13:16:47;15.63;;;5.05;;
27857;SDS011;16852;51.446;6.528;2023-10-13T13:18:48;21.73;;;6.00;;
27857;SDS011;16852;51.446;6.528;2023-10-13T13:20:48;14.73;;;5.43;;
27857;SDS011;16852;51.446;6.528;2023-10-13T13:22:56;17.83;;;4.85;;
27857;SDS011;16852;51.446;6.528;2023-10-13T13:25:02;13.05;;;5.28;;
27857;SDS011;16852;51.446;6.528;2023-10-13T13:27:07;17.55;;;5.72;;
27857;SDS011;16852;51.446;6.528;2023-10-13T13:29:08;17.90;;;5.03;;
27857;SDS011;16852;51.446;6.528;2023-10-13T13:31:11;15.25;;;5.22;;
27857;SDS011;16852;51.446;6.528;2023-10-13T13:33:12;15.38;;;5.10;;
27857;SDS011;16852;51.446;6.528;2023-10-13T13:35:14;11.83;;;5.00;;
27857;SDS011;16852;51.446;6.528;2023-10-13T13:37:18;12.75;;;4.65;;
27857;SDS011;16852;51.446;6.528;2023-10-13T13:39:19;15.07;;;4.65;;
27857;SDS011;16852;51.446;6.528;2023-10-13T13:41:28;13.82;;;4.53;;
27857;SDS011;16852;51.446;6.528;2023-10-13T13:43:32;16.35;;;5.10;;
27857;SDS011;16852;51.446;6.528;2023-10-13T13:45:41;12.40;;;4.40;;
27857;SDS011;16852;51.446;6.528;2023-10-13T13:47:42;14.52;;;5.28;;
27857;SDS011;16852;51.446;6.528;2023-10-13T13:49:42;15.75;;;5.30;;
27857;SDS011;16852;51.446;6.528;2023-10-13T13:51:51;12.82;;;4.78;;
27857;SDS011;16852;51.446;6.528;2023-10-13T13:53:51;16.30;;;4.50;;
27857;SDS011;16852;51.446;6.528;2023-10-13T13:55:52;15.18;;;5.13;;
27857;SDS011;16852;51.446;6.528;2023-10-13T13:57:53;17.50;;;5.35;;
27857;SDS011;16852;51.446;6.528;2023-10-13T14:01:57;17.70;;;5.13;;
27857;SDS011;16852;51.446;6.528;2023-10-13T14:03:59;12.43;;;4.43;;
27857;SDS011;16852;51.446;6.528;2023-10-13T14:06:06;11.95;;;4.93;;
27857;SDS011;16852;51.446;6.528;2023-10-13T14:08:16;14.07;;;4.93;;
27857;SDS011;16852;51.446;6.528;2023-10-13T14:10:19;10.18;;;4.63;;
27857;SDS011;16852;51.446;6.528;2023-10-13T14:12:32;13.85;;;4.93;;
27857;SDS011;16852;51.446;6.528;2023-10-13T14:14:41;14.18;;;4.47;;
27857;SDS011;16852;51.446;6.528;2023-10-13T14:16:49;14.48;;;4.75;;
27857;SDS011;16852;51.446;6.528;2023-10-13T14:18:50;10.70;;;4.57;;
27857;SDS011;16852;51.446;6.528;2023-10-13T14:20:51;17.48;;;4.95;;
27857;SDS011;16852;51.446;6.528;2023-10-13T14:22:52;18.35;;;4.90;;
27857;SDS011;16852;51.446;6.528;2023-10-13T14:24:53;11.90;;;4.93;;
27857;SDS011;16852;51.446;6.528;2023-10-13T14:26:57;17.65;;;4.90;;
27857;SDS011;16852;51.446;6.528;2023-10-13T14:29:17;15.70;;;5.22;;
27857;SDS011;16852;51.446;6.528;2023-10-13T14:31:18;11.25;;;4.22;;
27857;SDS011;16852;51.446;6.528;2023-10-13T14:33:19;15.75;;;4.80;;
27857;SDS011;16852;51.446;6.528;2023-10-13T14:35:25;11.15;;;4.20;;
27857;SDS011;16852;51.446;6.528;2023-10-13T14:37:26;12.35;;;4.07;;
27857;SDS011;16852;51.446;6.528;2023-10-13T14:39:26;12.82;;;4.43;;
27857;SDS011;16852;51.446;6.528;2023-10-13T14:41:30;14.80;;;4.85;;
27857;SDS011;16852;51.446;6.528;2023-10-13T14:43:31;15.60;;;4.00;;
27857;SDS011;16852;51.446;6.528;2023-10-13T14:45:31;21.52;;;5.45;;
27857;SDS011;16852;51.446;6.528;2023-10-13T14:47:34;16.02;;;5.18;;
27857;SDS011;16852;51.446;6.528;2023-10-13T14:49:39;14.40;;;4.97;;
27857;SDS011;16852;51.446;6.528;2023-10-13T14:51:41;14.23;;;4.50;;
27857;SDS011;16852;51.446;6.528;2023-10-13T14:53:42;13.55;;;4.30;;
27857;SDS011;16852;51.446;6.528;2023-10-13T14:55:43;14.02;;;4.78;;
27857;SDS011;16852;51.446;6.528;2023-10-13T14:57:45;13.68;;;4.22;;
27857;SDS011;16852;51.446;6.528;2023-10-13T14:59:47;11.98;;;4.65;;
27857;SDS011;16852;51.446;6.528;2023-10-13T15:01:48;12.55;;;4.68;;
27857;SDS011;16852;51.446;6.528;2023-10-13T15:03:50;13.40;;;5.15;;
27857;SDS011;16852;51.446;6.528;2023-10-13T15:05:55;14.95;;;5.20;;
27857;SDS011;16852;51.446;6.528;2023-10-13T15:07:55;10.30;;;4.32;;
27857;SDS011;16852;51.446;6.528;2023-10-13T15:09:56;8.73;;;4.20;;
27857;SDS011;16852;51.446;6.528;2023-10-13T15:11:57;14.23;;;4.43;;
27857;SDS011;16852;51.446;6.528;2023-10-13T15:13:57;20.98;;;5.13;;
27857;SDS011;16852;51.446;6.528;2023-10-13T15:15:58;21.95;;;5.50;;
27857;SDS011;16852;51.446;6.528;2023-10-13T15:17:58;12.30;;;4.70;;
27857;SDS011;16852;51.446;6.528;2023-10-13T15:20:01;19.15;;;4.43;;
27857;SDS011;16852;51.446;6.528;2023-10-13T15:22:03;9.37;;;4.33;;
27857;SDS011;16852;51.446;6.528;2023-10-13T15:24:06;17.25;;;4.55;;
27857;SDS011;16852;51.446;6.528;2023-10-13T15:26:13;13.38;;;4.55;;
27857;SDS011;16852;51.446;6.528;2023-10-13T15:28:15;8.43;;;4.05;;
27857;SDS011;16852;51.446;6.528;2023-10-13T15:30:23;12.70;;;4.72;;
27857;SDS011;16852;51.446;6.528;2023-10-13T15:32:26;15.32;;;4.70;;
27857;SDS011;16852;51.446;6.528;2023-10-13T15:34:42;10.38;;;4.25;;
27857;SDS011;16852;51.446;6.528;2023-10-13T15:36:43;16.35;;;4.05;;
27857;SDS011;16852;51.446;6.528;2023-10-13T15:38:44;9.83;;;4.33;;
27857;SDS011;16852;51.446;6.528;2023-10-13T15:40:46;9.65;;;4.25;;
27857;SDS011;16852;51.446;6.528;2023-10-13T15:42:47;12.75;;;4.18;;
27857;SDS011;16852;51.446;6.528;2023-10-13T15:44:47;12.95;;;4.35;;
27857;SDS011;16852;51.446;6.528;2023-10-13T15:46:52;10.75;;;3.85;;
27857;SDS011;16852;51.446;6.528;2023-10-13T15:48:53;10.90;;;4.50;;
27857;SDS011;16852;51.446;6.528;2023-10-13T15:50:55;14.20;;;4.43;;
27857;SDS011;16852;51.446;6.528;2023-10-13T15:52:55;16.27;;;4.18;;
27857;SDS011;16852;51.446;6.528;2023-10-13T15:54:56;12.93;;;4.45;;
27857;SDS011;16852;51.446;6.528;2023-10-13T15:56:57;8.98;;;4.25;;
27857;SDS011;16852;51.446;6.528;2023-10-13T15:58:59;10.55;;;4.07;;
27857;SDS011;16852;51.446;6.528;2023-10-13T16:01:02;9.07;;;3.88;;
27857;SDS011;16852;51.446;6.528;2023-10-13T16:03:03;8.38;;;3.92;;
27857;SDS011;16852;51.446;6.528;2023-10-13T16:05:10;10.75;;;4.18;;
27857;SDS011;16852;51.446;6.528;2023-10-13T16:07:11;13.93;;;5.20;;
27857;SDS011;16852;51.446;6.528;2023-10-13T16:09:12;10.40;;;4.15;;
27857;SDS011;16852;51.446;6.528;2023-10-13T16:11:16;13.30;;;4.97;;
27857;SDS011;16852;51.446;6.528;2023-10-13T16:13:19;12.95;;;4.55;;
27857;SDS011;16852;51.446;6.528;2023-10-13T16:15:20;11.05;;;4.22;;
27857;SDS011;16852;51.446;6.528;2023-10-13T16:17:21;12.48;;;4.00;;
27857;SDS011;16852;51.446;6.528;2023-10-13T16:19:23;15.10;;;4.55;;
27857;SDS011;16852;51.446;6.528;2023-10-13T16:21:24;10.55;;;4.25;;
27857;SDS011;16852;51.446;6.528;2023-10-13T16:23:25;8.65;;;3.85;;
27857;SDS011;16852;51.446;6.528;2023-10-13T16:27:28;10.63;;;4.25;;
27857;SDS011;16852;51.446;6.528;2023-10-13T16:29:30;12.07;;;4.25;;
27857;SDS011;16852;51.446;6.528;2023-10-13T16:31:31;11.18;;;4.55;;
27857;SDS011;16852;51.446;6.528;2023-10-13T16:33:32;9.52;;;4.57;;
27857;SDS011;16852;51.446;6.528;2023-10-13T16:35:36;11.25;;;4.10;;
27857;SDS011;16852;51.446;6.528;2023-10-13T16:37:36;12.75;;;4.20;;
27857;SDS011;16852;51.446;6.528;2023-10-13T16:39:37;12.15;;;4.40;;
27857;SDS011;16852;51.446;6.528;2023-10-13T16:41:39;9.15;;;4.13;;
27857;SDS011;16852;51.446;6.528;2023-10-13T16:43:41;11.32;;;4.07;;
27857;SDS011;16852;51.446;6.528;2023-10-13T16:45:42;12.95;;;4.30;;
27857;SDS011;16852;51.446;6.528;2023-10-13T16:47:45;10.45;;;3.60;;
27857;SDS011;16852;51.446;6.528;2023-10-13T16:49:55;10.20;;;4.10;;
27857;SDS011;16852;51.446;6.528;2023-10-13T16:51:55;10.75;;;3.95;;
27857;SDS011;16852;51.446;6.528;2023-10-13T16:53:56;12.57;;;5.10;;
27857;SDS011;16852;51.446;6.528;2023-10-13T16:58:00;10.05;;;4.63;;
27857;SDS011;16852;51.446;6.528;2023-10-13T17:00:02;11.27;;;4.40;;
27857;SDS011;16852;51.446;6.528;2023-10-13T17:02:06;11.77;;;4.68;;
27857;SDS011;16852;51.446;6.528;2023-10-13T17:04:07;10.73;;;4.15;;
27857;SDS011;16852;51.446;6.528;2023-10-13T17:06:08;10.30;;;3.60;;
27857;SDS011;16852;51.446;6.528;2023-10-13T17:08:08;12.32;;;4.95;;
27857;SDS011;16852;51.446;6.528;2023-10-13T17:10:10;8.13;;;3.97;;
27857;SDS011;16852;51.446;6.528;2023-10-13T17:12:11;13.63;;;5.00;;
27857;SDS011;16852;51.446;6.528;2023-10-13T17:14:12;12.90;;;4.35;;
27857;SDS011;16852;51.446;6.528;2023-10-13T17:16:16;12.77;;;4.55;;
27857;SDS011;16852;51.446;6.528;2023-10-13T17:18:21;14.80;;;5.05;;
27857;SDS011;16852;51.446;6.528;2023-10-13T17:20:22;12.20;;;4.15;;
27857;SDS011;16852;51.446;6.528;2023-10-13T17:22:22;10.50;;;4.45;;
27857;SDS011;16852;51.446;6.528;2023-10-13T17:24:23;10.63;;;4.45;;
27857;SDS011;16852;51.446;6.528;2023-10-13T17:26:24;9.93;;;4.18;;
27857;SDS011;16852;51.446;6.528;2023-10-13T17:28:27;11.10;;;5.13;;
27857;SDS011;16852;51.446;6.528;2023-10-13T17:30:27;12.25;;;4.55;;
27857;SDS011;16852;51.446;6.528;2023-10-13T17:32:28;11.05;;;4.78;;
27857;SDS011;16852;51.446;6.528;2023-10-13T17:34:28;8.98;;;4.25;;
27857;SDS011;16852;51.446;6.528;2023-10-13T17:36:29;12.88;;;4.80;;
27857;SDS011;16852;51.446;6.528;2023-10-13T17:38:31;11.82;;;4.47;;
27857;SDS011;16852;51.446;6.528;2023-10-13T17:40:33;11.25;;;4.68;;
27857;SDS011;16852;51.446;6.528;2023-10-13T17:42:38;11.98;;;4.63;;
27857;SDS011;16852;51.446;6.528;2023-10-13T17:44:39;10.82;;;5.25;;
27857;SDS011;16852;51.446;6.528;2023-10-13T17:46:40;9.30;;;4.57;;
27857;SDS011;16852;51.446;6.528;2023-10-13T17:48:41;8.63;;;3.88;;
27857;SDS011;16852;51.446;6.528;2023-10-13T17:52:47;9.90;;;5.00;;
27857;SDS011;16852;51.446;6.528;2023-10-13T17:54:48;15.90;;;4.60;;
27857;SDS011;16852;51.446;6.528;2023-10-13T17:56:48;13.43;;;4.75;;
27857;SDS011;16852;51.446;6.528;2023-10-13T17:58:49;11.95;;;4.53;;
27857;SDS011;16852;51.446;6.528;2023-10-13T18:00:51;11.63;;;4.28;;
27857;SDS011;16852;51.446;6.528;2023-10-13T18:02:52;10.38;;;4.70;;
27857;SDS011;16852;51.446;6.528;2023-10-13T18:04:54;12.27;;;4.45;;
27857;SDS011;16852;51.446;6.528;2023-10-13T18:06:55;16.98;;;5.05;;
27857;SDS011;16852;51.446;6.528;2023-10-13T18:08:56;8.57;;;4.90;;
27857;SDS011;16852;51.446;6.528;2023-10-13T18:10:57;9.90;;;4.13;;
27857;SDS011;16852;51.446;6.528;2023-10-13T18:12:59;9.32;;;4.35;;
27857;SDS011;16852;51.446;6.528;2023-10-13T18:15:00;10.73;;;4.85;;
27857;SDS011;16852;51.446;6.528;2023-10-13T18:17:01;11.25;;;4.55;;
27857;SDS011;16852;51.446;6.528;2023-10-13T18:19:02;13.15;;;5.57;;
27857;SDS011;16852;51.446;6.528;2023-10-13T18:21:07;10.38;;;5.22;;
27857;SDS011;16852;51.446;6.528;2023-10-13T18:23:08;10.48;;;4.85;;
27857;SDS011;16852;51.446;6.528;2023-10-13T18:27:16;14.98;;;5.00;;
27857;SDS011;16852;51.446;6.528;2023-10-13T18:29:16;14.95;;;5.40;;
27857;SDS011;16852;51.446;6.528;2023-10-13T18:31:17;12.18;;;4.82;;
27857;SDS011;16852;51.446;6.528;2023-10-13T18:33:17;13.98;;;4.93;;
27857;SDS011;16852;51.446;6.528;2023-10-13T18:35:23;10.90;;;5.00;;
27857;SDS011;16852;51.446;6.528;2023-10-13T18:37:24;10.98;;;4.95;;
27857;SDS011;16852;51.446;6.528;2023-10-13T18:39:28;18.83;;;5.32;;
27857;SDS011;16852;51.446;6.528;2023-10-13T18:41:35;9.55;;;4.97;;
27857;SDS011;16852;51.446;6.528;2023-10-13T18:43:39;12.13;;;5.15;;
27857;SDS011;16852;51.446;6.528;2023-10-13T18:45:41;9.77;;;5.32;;
27857;SDS011;16852;51.446;6.528;2023-10-13T18:47:42;11.55;;;5.10;;
27857;SDS011;16852;51.446;6.528;2023-10-13T18:49:45;13.52;;;5.32;;
27857;SDS011;16852;51.446;6.528;2023-10-13T18:51:45;13.80;;;5.68;;
27857;SDS011;16852;51.446;6.528;2023-10-13T18:53:47;14.52;;;5.10;;
27857;SDS011;16852;51.446;6.528;2023-10-13T18:55:48;22.17;;;6.10;;
27857;SDS011;16852;51.446;6.528;2023-10-13T18:57:49;15.50;;;5.80;;
27857;SDS011;16852;51.446;6.528;2023-10-13T18:59:50;11.82;;;5.65;;
27857;SDS011;16852;51.446;6.528;2023-10-13T19:01:51;15.05;;;5.93;;
27857;SDS011;16852;51.446;6.528;2023-10-13T19:03:52;13.18;;;5.90;;
27857;SDS011;16852;51.446;6.528;2023-10-13T19:07:55;18.75;;;6.80;;
27857;SDS011;16852;51.446;6.528;2023-10-13T19:09:56;12.63;;;6.40;;
27857;SDS011;16852;51.446;6.528;2023-10-13T19:11:57;13.27;;;6.28;;
27857;SDS011;16852;51.446;6.528;2023-10-13T19:13:57;17.83;;;6.82;;
27857;SDS011;16852;51.446;6.528;2023-10-13T19:15:58;17.23;;;7.20;;
27857;SDS011;16852;51.446;6.528;2023-10-13T19:18:02;14.07;;;6.68;;
27857;SDS011;16852;51.446;6.528;2023-10-13T19:20:03;15.05;;;6.95;;
27857;SDS011;16852;51.446;6.528;2023-10-13T19:22:05;22.60;;;7.60;;
27857;SDS011;16852;51.446;6.528;2023-10-13T19:24:06;16.92;;;7.15;;
27857;SDS011;16852;51.446;6.528;2023-10-13T19:26:10;13.10;;;6.20;;
27857;SDS011;16852;51.446;6.528;2023-10-13T19:28:11;17.15;;;6.82;;
27857;SDS011;16852;51.446;6.528;2023-10-13T19:30:14;12.43;;;7.63;;
27857;SDS011;16852;51.446;6.528;2023-10-13T19:32:21;16.40;;;7.00;;
27857;SDS011;16852;51.446;6.528;2023-10-13T19:34:21;13.55;;;6.45;;
27857;SDS011;16852;51.446;6.528;2023-10-13T19:36:22;13.38;;;6.65;;
27857;SDS011;16852;51.446;6.528;2023-10-13T19:38:23;16.73;;;5.93;;
27857;SDS011;16852;51.446;6.528;2023-10-13T19:40:28;22.10;;;7.65;;
27857;SDS011;16852;51.446;6.528;2023-10-13T19:42:33;18.42;;;7.07;;
27857;SDS011;16852;51.446;6.528;2023-10-13T19:44:35;22.73;;;6.78;;
27857;SDS011;16852;51.446;6.528;2023-10-13T19:46:36;14.57;;;6.43;;
27857;SDS011;16852;51.446;6.528;2023-10-13T19:48:37;14.73;;;6.38;;
27857;SDS011;16852;51.446;6.528;2023-10-13T19:50:39;16.30;;;6.97;;
27857;SDS011;16852;51.446;6.528;2023-10-13T19:52:40;16.98;;;6.63;;
27857;SDS011;16852;51.446;6.528;2023-10-13T19:54:41;16.95;;;6.95;;
27857;SDS011;16852;51.446;6.528;2023-10-13T19:56:42;16.15;;;6.43;;
27857;SDS011;16852;51.446;6.528;2023-10-13T19:58:45;15.57;;;6.47;;
27857;SDS011;16852;51.446;6.528;2023-10-13T20:00:51;18.05;;;6.93;;
27857;SDS011;16852;51.446;6.528;2023-10-13T20:02:55;20.30;;;7.50;;
27857;SDS011;16852;51.446;6.528;2023-10-13T20:04:55;16.10;;;6.78;;
27857;SDS011;16852;51.446;6.528;2023-10-13T20:06:56;17.05;;;7.30;;
27857;SDS011;16852;51.446;6.528;2023-10-13T20:08:57;13.93;;;6.50;;
27857;SDS011;16852;51.446;6.528;2023-10-13T20:11:02;12.68;;;6.18;;
27857;SDS011;16852;51.446;6.528;2023-10-13T20:13:03;16.70;;;6.68;;
27857;SDS011;16852;51.446;6.528;2023-10-13T20:15:05;18.63;;;6.82;;
27857;SDS011;16852;51.446;6.528;2023-10-13T20:17:07;16.45;;;6.25;;
27857;SDS011;16852;51.446;6.528;2023-10-13T20:19:13;13.23;;;5.97;;
27857;SDS011;16852;51.446;6.528;2023-10-13T20:21:16;14.55;;;5.85;;
27857;SDS011;16852;51.446;6.528;2023-10-13T20:23:17;14.43;;;6.13;;
27857;SDS011;16852;51.446;6.528;2023-10-13T20:25:19;16.33;;;6.28;;
27857;SDS011;16852;51.446;6.528;2023-10-13T20:27:20;13.93;;;6.07;;
27857;SDS011;16852;51.446;6.528;2023-10-13T20:29:22;12.68;;;5.82;;
27857;SDS011;16852;51.446;6.528;2023-10-13T20:31:23;14.77;;;5.80;;
27857;SDS011;16852;51.446;6.528;2023-10-13T20:33:24;11.70;;;5.68;;
27857;SDS011;16852;51.446;6.528;2023-10-13T20:35:25;13.63;;;5.65;;
27857;SDS011;16852;51.446;6.528;2023-10-13T20:37:25;16.17;;;6.03;;
27857;SDS011;16852;51.446;6.528;2023-10-13T20:39:29;9.98;;;5.25;;
27857;SDS011;16852;51.446;6.528;2023-10-13T20:41:32;11.40;;;5.30;;
27857;SDS011;16852;51.446;6.528;2023-10-13T20:43:33;14.02;;;5.13;;
27857;SDS011;16852;51.446;6.528;2023-10-13T20:45:38;14.57;;;5.88;;
27857;SDS011;16852;51.446;6.528;2023-10-13T20:47:39;12.52;;;5.68;;
27857;SDS011;16852;51.446;6.528;2023-10-13T20:49:40;16.17;;;5.43;;
27857;SDS011;16852;51.446;6.528;2023-10-13T20:53:44;13.90;;;5.63;;
27857;SDS011;16852;51.446;6.528;2023-10-13T20:55:47;15.18;;;6.18;;
27857;SDS011;16852;51.446;6.528;2023-10-13T20:58:00;13.55;;;5.60;;
27857;SDS011;16852;51.446;6.528;2023-10-13T21:00:04;13.35;;;5.07;;
27857;SDS011;16852;51.446;6.528;2023-10-13T21:02:08;14.82;;;6.03;;
27857;SDS011;16852;51.446;6.528;2023-10-13T21:04:09;10.82;;;5.38;;
27857;SDS011;16852;51.446;6.528;2023-10-13T21:06:10;14.65;;;5.93;;
27857;SDS011;16852;51.446;6.528;2023-10-13T21:08:10;13.20;;;5.55;;
27857;SDS011;16852;51.446;6.528;2023-10-13T21:10:11;11.02;;;5.63;;
27857;SDS011;16852;51.446;6.528;2023-10-13T21:12:14;9.95;;;5.50;;
27857;SDS011;16852;51.446;6.528;2023-10-13T21:14:15;11.82;;;6.13;;
27857;SDS011;16852;51.446;6.528;2023-10-13T21:16:16;8.93;;;4.97;;
27857;SDS011;16852;51.446;6.528;2023-10-13T21:18:21;14.80;;;6.22;;
27857;SDS011;16852;51.446;6.528;2023-10-13T21:20:21;15.77;;;6.43;;
27857;SDS011;16852;51.446;6.528;2023-10-13T21:22:22;17.55;;;5.95;;
27857;SDS011;16852;51.446;6.528;2023-10-13T21:24:22;12.32;;;5.65;;
27857;SDS011;16852;51.446;6.528;2023-10-13T21:26:24;14.23;;;5.50;;
27857;SDS011;16852;51.446;6.528;2023-10-13T21:28:29;11.75;;;5.68;;
27857;SDS011;16852;51.446;6.528;2023-10-13T21:30:32;12.68;;;5.85;;
27857;SDS011;16852;51.446;6.528;2023-10-13T21:32:33;13.35;;;5.75;;
27857;SDS011;16852;51.446;6.528;2023-10-13T21:34:34;13.10;;;5.78;;
27857;SDS011;16852;51.446;6.528;2023-10-13T21:36:35;13.18;;;5.85;;
27857;SDS011;16852;51.446;6.528;2023-10-13T21:38:39;19.48;;;5.82;;
27857;SDS011;16852;51.446;6.528;2023-10-13T21:40:43;11.32;;;5.80;;
27857;SDS011;16852;51.446;6.528;2023-10-13T21:42:44;12.10;;;5.97;;
27857;SDS011;16852;51.446;6.528;2023-10-13T21:44:47;10.88;;;5.32;;
27857;SDS011;16852;51.446;6.528;2023-10-13T21:46:55;16.90;;;6.07;;
27857;SDS011;16852;51.446;6.528;2023-10-13T21:48:56;10.68;;;5.22;;
27857;SDS011;16852;51.446;6.528;2023-10-13T21:51:08;18.15;;;6.07;;
27857;SDS011;16852;51.446;6.528;2023-10-13T21:53:12;11.02;;;5.22;;
27857;SDS011;16852;51.446;6.528;2023-10-13T21:55:13;15.00;;;5.30;;
27857;SDS011;16852;51.446;6.528;2023-10-13T21:59:17;10.77;;;5.30;;
27857;SDS011;16852;51.446;6.528;2023-10-13T22:01:18;15.23;;;6.03;;
27857;SDS011;16852;51.446;6.528;2023-10-13T22:03:21;18.92;;;6.22;;
27857;SDS011;16852;51.446;6.528;2023-10-13T22:05:22;14.57;;;5.97;;
27857;SDS011;16852;51.446;6.528;2023-10-13T22:07:23;17.35;;;6.45;;
27857;SDS011;16852;51.446;6.528;2023-10-13T22:09:24;15.57;;;5.80;;
27857;SDS011;16852;51.446;6.528;2023-10-13T22:11:25;15.65;;;6.00;;
27857;SDS011;16852;51.446;6.528;2023-10-13T22:13:25;19.42;;;6.13;;
27857;SDS011;16852;51.446;6.528;2023-10-13T22:15:26;14.73;;;5.55;;
27857;SDS011;16852;51.446;6.528;2023-10-13T22:17:28;13.85;;;6.18;;
27857;SDS011;16852;51.446;6.528;2023-10-13T22:19:32;16.65;;;6.10;;
27857;SDS011;16852;51.446;6.528;2023-10-13T22:21:33;18.02;;;6.15;;
27857;SDS011;16852;51.446;6.528;2023-10-13T22:23:34;15.15;;;5.72;;
27857;SDS011;16852;51.446;6.528;2023-10-13T22:25:35;14.88;;;5.95;;
27857;SDS011;16852;51.446;6.528;2023-10-13T22:27:37;16.37;;;6.07;;
27857;SDS011;16852;51.446;6.528;2023-10-13T22:29:38;14.43;;;6.00;;
27857;SDS011;16852;51.446;6.528;2023-10-13T22:31:42;13.93;;;5.95;;
27857;SDS011;16852;51.446;6.528;2023-10-13T22:33:43;15.65;;;6.25;;
27857;SDS011;16852;51.446;6.528;2023-10-13T22:35:44;17.95;;;5.95;;
27857;SDS011;16852;51.446;6.528;2023-10-13T22:37:49;15.20;;;5.88;;
27857;SDS011;16852;51.446;6.528;2023-10-13T22:39:51;11.00;;;5.93;;
27857;SDS011;16852;51.446;6.528;2023-10-13T22:41:52;15.95;;;5.85;;
27857;SDS011;16852;51.446;6.528;2023-10-13T22:43:52;16.50;;;6.70;;
27857;SDS011;16852;51.446;6.528;2023-10-13T22:45:53;21.92;;;6.95;;
27857;SDS011;16852;51.446;6.528;2023-10-13T22:47:55;15.80;;;6.82;;
27857;SDS011;16852;51.446;6.528;2023-10-13T22:49:58;15.68;;;6.72;;
27857;SDS011;16852;51.446;6.528;2023-10-13T22:51:59;17.60;;;6.22;;
27857;SDS011;16852;51.446;6.528;2023-10-13T22:53:59;10.77;;;5.68;;
27857;SDS011;16852;51.446;6.528;2023-10-13T22:56:00;10.18;;;5.85;;
27857;SDS011;16852;51.446;6.528;2023-10-13T22:58:00;11.05;;;6.28;;
27857;SDS011;16852;51.446;6.528;2023-10-13T23:00:08;11.38;;;6.13;;
27857;SDS011;16852;51.446;6.528;2023-10-13T23:02:10;15.27;;;6.25;;
27857;SDS011;16852;51.446;6.528;2023-10-13T23:04:14;17.67;;;6.30;;
27857;SDS011;16852;51.446;6.528;2023-10-13T23:06:15;15.13;;;7.00;;
27857;SDS011;16852;51.446;6.528;2023-10-13T23:08:21;15.13;;;6.78;;
27857;SDS011;16852;51.446;6.528;2023-10-13T23:10:34;16.10;;;7.15;;
27857;SDS011;16852;51.446;6.528;2023-10-13T23:12:45;12.82;;;6.20;;
27857;SDS011;16852;51.446;6.528;2023-10-13T23:14:45;19.35;;;6.88;;
27857;SDS011;16852;51.446;6.528;2023-10-13T23:16:50;17.15;;;6.72;;
27857;SDS011;16852;51.446;6.528;2023-10-13T23:18:51;17.73;;;6.53;;
27857;SDS011;16852;51.446;6.528;2023-10-13T23:20:54;19.17;;;6.95;;
27857;SDS011;16852;51.446;6.528;2023-10-13T23:22:55;21.67;;;5.90;;